sensor_id;sensor_type;location;lat;lon;timestamp;pressure;altitude;pressure_sealevel;temperature;humidity
65175;BME280;51761;42.126;24.752;2023-05-08T00:01:49;99863.47;;;13.66;60.44
65175;BME280;51761;42.126;24.752;2023-05-08T00:04:15;99870.66;;;13.67;60.66
65175;BME280;51761;42.126;24.752;2023-05-08T00:06:41;99850.97;;;13.51;60.72
65175;BME280;51761;42.126;24.752;2023-05-08T00:09:07;99860.81;;;13.59;61.09
65175;BME280;51761;42.126;24.752;2023-05-08T00:11:32;99862.03;;;13.58;61.25
65175;BME280;51761;42.126;24.752;2023-05-08T00:13:58;99842.91;;;13.53;61.65
65175;BME280;51761;42.126;24.752;2023-05-08T00:16:23;99850.63;;;13.49;61.68
65175;BME280;51761;42.126;24.752;2023-05-08T00:18:49;99865.56;;;13.62;61.73
65175;BME280;51761;42.126;24.752;2023-05-08T00:21:14;99857.81;;;13.50;62.06
65175;BME280;51761;42.126;24.752;2023-05-08T00:23:39;99863.59;;;13.59;62.00
65175;BME280;51761;42.126;24.752;2023-05-08T00:26:05;99875.19;;;13.61;62.13
65175;BME280;51761;42.126;24.752;2023-05-08T00:28:31;99838.72;;;13.45;62.18
65175;BME280;51761;42.126;24.752;2023-05-08T00:30:59;99854.75;;;13.60;62.30
65175;BME280;51761;42.126;24.752;2023-05-08T00:33:25;99861.69;;;13.56;62.35
65175;BME280;51761;42.126;24.752;2023-05-08T00:35:50;99847.66;;;13.40;62.56
65175;BME280;51761;42.126;24.752;2023-05-08T00:38:22;99860.63;;;13.50;62.31
65175;BME280;51761;42.126;24.752;2023-05-08T00:40:47;99841.34;;;13.36;62.36
65175;BME280;51761;42.126;24.752;2023-05-08T00:43:13;99866.69;;;13.48;62.36
65175;BME280;51761;42.126;24.752;2023-05-08T00:45:38;99866.84;;;13.41;62.49
65175;BME280;51761;42.126;24.752;2023-05-08T00:48:05;99863.59;;;13.43;62.06
65175;BME280;51761;42.126;24.752;2023-05-08T00:50:31;99868.66;;;13.32;62.35
65175;BME280;51761;42.126;24.752;2023-05-08T00:52:57;99866.59;;;13.36;62.12
65175;BME280;51761;42.126;24.752;2023-05-08T00:55:25;99874.66;;;13.34;62.08
65175;BME280;51761;42.126;24.752;2023-05-08T00:57:50;99875.59;;;13.27;62.88
65175;BME280;51761;42.126;24.752;2023-05-08T01:00:17;99855.91;;;13.11;62.40
65175;BME280;51761;42.126;24.752;2023-05-08T01:02:44;99889.25;;;13.25;62.47
65175;BME280;51761;42.126;24.752;2023-05-08T01:05:10;99893.00;;;13.19;63.38
65175;BME280;51761;42.126;24.752;2023-05-08T01:07:36;99861.88;;;13.13;62.08
65175;BME280;51761;42.126;24.752;2023-05-08T01:10:04;99890.38;;;13.28;62.14
65175;BME280;51761;42.126;24.752;2023-05-08T01:15:22;99873.31;;;13.03;62.29
65175;BME280;51761;42.126;24.752;2023-05-08T01:18:10;99896.97;;;13.21;62.54
65175;BME280;51761;42.126;24.752;2023-05-08T01:21:02;99902.63;;;13.18;62.52
65175;BME280;51761;42.126;24.752;2023-05-08T01:26:47;99891.09;;;12.96;62.75
65175;BME280;51761;42.126;24.752;2023-05-08T01:29:40;99909.63;;;13.10;62.01
65175;BME280;51761;42.126;24.752;2023-05-08T01:32:11;99902.22;;;13.00;62.75
65175;BME280;51761;42.126;24.752;2023-05-08T01:37:56;99896.75;;;12.73;63.33
65175;BME280;51761;42.126;24.752;2023-05-08T01:43:21;99900.56;;;12.63;63.76
65175;BME280;51761;42.126;24.752;2023-05-08T01:45:51;99868.84;;;12.47;63.35
65175;BME280;51761;42.126;24.752;2023-05-08T01:48:23;99897.09;;;12.56;63.72
65175;BME280;51761;42.126;24.752;2023-05-08T01:50:55;99898.59;;;12.60;63.47
65175;BME280;51761;42.126;24.752;2023-05-08T01:53:25;99884.44;;;12.48;63.48
65175;BME280;51761;42.126;24.752;2023-05-08T01:55:55;99897.59;;;12.51;63.41
65175;BME280;51761;42.126;24.752;2023-05-08T01:58:23;99867.38;;;12.39;63.29
65175;BME280;51761;42.126;24.752;2023-05-08T02:00:49;99882.56;;;12.42;63.16
65175;BME280;51761;42.126;24.752;2023-05-08T02:03:16;99896.72;;;12.54;63.48
65175;BME280;51761;42.126;24.752;2023-05-08T02:05:43;99892.72;;;12.55;63.50
65175;BME280;51761;42.126;24.752;2023-05-08T02:08:11;99882.56;;;12.42;63.40
65175;BME280;51761;42.126;24.752;2023-05-08T02:10:38;99879.03;;;12.38;63.70
65175;BME280;51761;42.126;24.752;2023-05-08T02:13:06;99887.09;;;12.55;63.57
65175;BME280;51761;42.126;24.752;2023-05-08T02:15:33;99885.06;;;12.56;63.82
65175;BME280;51761;42.126;24.752;2023-05-08T02:18:06;99853.88;;;12.34;63.76
65175;BME280;51761;42.126;24.752;2023-05-08T02:20:32;99892.47;;;12.46;63.89
65175;BME280;51761;42.126;24.752;2023-05-08T02:22:58;99895.25;;;12.46;64.24
65175;BME280;51761;42.126;24.752;2023-05-08T02:25:26;99889.09;;;12.55;63.61
65175;BME280;51761;42.126;24.752;2023-05-08T02:27:54;99866.63;;;12.39;63.54
65175;BME280;51761;42.126;24.752;2023-05-08T02:30:22;99893.63;;;12.49;63.68
65175;BME280;51761;42.126;24.752;2023-05-08T02:32:49;99876.66;;;12.36;63.61
65175;BME280;51761;42.126;24.752;2023-05-08T02:35:18;99899.94;;;12.53;62.88
65175;BME280;51761;42.126;24.752;2023-05-08T02:37:47;99876.34;;;12.31;64.13
65175;BME280;51761;42.126;24.752;2023-05-08T02:40:16;99896.78;;;12.51;62.81
65175;BME280;51761;42.126;24.752;2023-05-08T02:42:42;99873.44;;;12.38;62.24
65175;BME280;51761;42.126;24.752;2023-05-08T02:45:08;99899.59;;;12.51;62.40
65175;BME280;51761;42.126;24.752;2023-05-08T02:47:59;99905.75;;;12.42;63.20
65175;BME280;51761;42.126;24.752;2023-05-08T02:50:40;99909.56;;;12.52;63.42
65175;BME280;51761;42.126;24.752;2023-05-08T02:53:13;99902.38;;;12.51;63.40
65175;BME280;51761;42.126;24.752;2023-05-08T02:55:55;99903.47;;;12.57;62.66
65175;BME280;51761;42.126;24.752;2023-05-08T02:58:32;99905.53;;;12.53;62.97
65175;BME280;51761;42.126;24.752;2023-05-08T03:01:06;99895.41;;;12.39;64.43
65175;BME280;51761;42.126;24.752;2023-05-08T03:06:10;99902.75;;;12.53;63.78
65175;BME280;51761;42.126;24.752;2023-05-08T03:08:39;99903.19;;;12.51;65.09
65175;BME280;51761;42.126;24.752;2023-05-08T03:11:10;99895.00;;;12.41;63.50
65175;BME280;51761;42.126;24.752;2023-05-08T03:13:37;99886.72;;;12.34;62.87
65175;BME280;51761;42.126;24.752;2023-05-08T03:16:05;99921.69;;;12.45;62.50
65175;BME280;51761;42.126;24.752;2023-05-08T03:18:55;99916.84;;;12.49;62.17
65175;BME280;51761;42.126;24.752;2023-05-08T03:21:25;99914.16;;;12.42;62.40
65175;BME280;51761;42.126;24.752;2023-05-08T03:23:53;99912.56;;;12.41;62.21
65175;BME280;51761;42.126;24.752;2023-05-08T03:26:21;99916.94;;;12.42;62.17
65175;BME280;51761;42.126;24.752;2023-05-08T03:28:47;99902.91;;;12.23;62.44
65175;BME280;51761;42.126;24.752;2023-05-08T03:31:16;99929.38;;;12.41;62.52
65175;BME280;51761;42.126;24.752;2023-05-08T03:33:46;99913.63;;;12.28;62.61
65175;BME280;51761;42.126;24.752;2023-05-08T03:36:12;99924.81;;;12.28;65.27
65175;BME280;51761;42.126;24.752;2023-05-08T03:38:39;99925.06;;;12.37;64.01
65175;BME280;51761;42.126;24.752;2023-05-08T03:41:05;99927.28;;;12.45;63.98
65175;BME280;51761;42.126;24.752;2023-05-08T03:43:31;99925.59;;;12.51;62.77
65175;BME280;51761;42.126;24.752;2023-05-08T03:45:57;99909.34;;;12.43;62.73
65175;BME280;51761;42.126;24.752;2023-05-08T03:48:25;99938.66;;;12.57;64.26
65175;BME280;51761;42.126;24.752;2023-05-08T03:50:52;99942.13;;;12.65;63.32
65175;BME280;51761;42.126;24.752;2023-05-08T03:53:17;99934.34;;;12.76;62.45
65175;BME280;51761;42.126;24.752;2023-05-08T03:55:43;99931.38;;;12.83;62.13
65175;BME280;51761;42.126;24.752;2023-05-08T04:03:40;99947.00;;;13.03;61.04
65175;BME280;51761;42.126;24.752;2023-05-08T04:06:15;99916.81;;;12.91;61.99
65175;BME280;51761;42.126;24.752;2023-05-08T04:08:49;99947.78;;;13.04;61.45
65175;BME280;51761;42.126;24.752;2023-05-08T04:14:09;99949.25;;;13.12;62.91
65175;BME280;51761;42.126;24.752;2023-05-08T04:16:44;99938.03;;;13.12;60.71
65175;BME280;51761;42.126;24.752;2023-05-08T04:19:18;99945.06;;;13.20;60.46
65175;BME280;51761;42.126;24.752;2023-05-08T04:21:46;99945.56;;;13.34;60.69
65175;BME280;51761;42.126;24.752;2023-05-08T04:24:14;99952.44;;;13.30;62.87
65175;BME280;51761;42.126;24.752;2023-05-08T04:26:41;99945.84;;;13.40;60.43
65175;BME280;51761;42.126;24.752;2023-05-08T04:29:07;99942.06;;;13.46;60.96
65175;BME280;51761;42.126;24.752;2023-05-08T04:31:34;99948.88;;;13.65;59.73
65175;BME280;51761;42.126;24.752;2023-05-08T04:34:01;99950.81;;;13.68;60.04
65175;BME280;51761;42.126;24.752;2023-05-08T04:36:30;99944.50;;;13.80;57.21
65175;BME280;51761;42.126;24.752;2023-05-08T04:38:55;99951.53;;;13.88;57.55
65175;BME280;51761;42.126;24.752;2023-05-08T04:41:21;99947.34;;;13.96;57.20
65175;BME280;51761;42.126;24.752;2023-05-08T04:43:47;99950.31;;;14.05;58.28
65175;BME280;51761;42.126;24.752;2023-05-08T04:46:13;99918.91;;;14.10;57.06
65175;BME280;51761;42.126;24.752;2023-05-08T04:48:38;99942.38;;;14.35;56.22
65175;BME280;51761;42.126;24.752;2023-05-08T04:51:04;99948.75;;;14.51;54.98
65175;BME280;51761;42.126;24.752;2023-05-08T04:53:29;99934.16;;;14.56;52.78
65175;BME280;51761;42.126;24.752;2023-05-08T04:55:55;99947.03;;;14.70;52.13
65175;BME280;51761;42.126;24.752;2023-05-08T04:58:21;99948.50;;;14.74;52.91
65175;BME280;51761;42.126;24.752;2023-05-08T05:00:47;99938.38;;;14.93;53.40
65175;BME280;51761;42.126;24.752;2023-05-08T05:03:12;99930.72;;;14.93;52.87
65175;BME280;51761;42.126;24.752;2023-05-08T05:05:38;99907.78;;;14.95;51.28
65175;BME280;51761;42.126;24.752;2023-05-08T05:08:03;99934.16;;;15.13;51.85
65175;BME280;51761;42.126;24.752;2023-05-08T05:10:29;99936.75;;;15.20;52.00
65175;BME280;51761;42.126;24.752;2023-05-08T05:12:54;99946.75;;;15.37;51.36
65175;BME280;51761;42.126;24.752;2023-05-08T05:15:20;99940.91;;;15.44;54.48
65175;BME280;51761;42.126;24.752;2023-05-08T05:17:46;99942.84;;;15.60;53.08
65175;BME280;51761;42.126;24.752;2023-05-08T05:20:12;99942.28;;;15.77;52.93
65175;BME280;51761;42.126;24.752;2023-05-08T05:22:37;99936.75;;;15.86;49.87
65175;BME280;51761;42.126;24.752;2023-05-08T05:25:03;99921.78;;;15.77;49.05
65175;BME280;51761;42.126;24.752;2023-05-08T05:27:30;99937.66;;;15.95;48.94
65175;BME280;51761;42.126;24.752;2023-05-08T05:29:56;99914.22;;;15.86;48.82
65175;BME280;51761;42.126;24.752;2023-05-08T05:32:21;99930.41;;;16.19;48.94
65175;BME280;51761;42.126;24.752;2023-05-08T05:34:47;99911.09;;;16.30;47.80
65175;BME280;51761;42.126;24.752;2023-05-08T05:37:12;99918.47;;;16.40;46.71
65175;BME280;51761;42.126;24.752;2023-05-08T05:39:38;99900.97;;;16.33;49.14
65175;BME280;51761;42.126;24.752;2023-05-08T05:42:03;99922.94;;;16.50;46.68
65175;BME280;51761;42.126;24.752;2023-05-08T05:44:29;99926.56;;;16.51;47.51
65175;BME280;51761;42.126;24.752;2023-05-08T05:46:54;99905.94;;;16.41;47.33
65175;BME280;51761;42.126;24.752;2023-05-08T05:49:20;99923.66;;;16.76;47.95
65175;BME280;51761;42.126;24.752;2023-05-08T05:51:45;99900.06;;;16.70;48.31
65175;BME280;51761;42.126;24.752;2023-05-08T05:54:11;99923.38;;;16.83;46.40
65175;BME280;51761;42.126;24.752;2023-05-08T05:56:36;99916.03;;;16.85;47.99
65175;BME280;51761;42.126;24.752;2023-05-08T05:59:02;99891.78;;;16.88;67.63
65175;BME280;51761;42.126;24.752;2023-05-08T06:01:27;99898.84;;;17.14;52.02
65175;BME280;51761;42.126;24.752;2023-05-08T06:03:53;99898.31;;;17.49;49.56
65175;BME280;51761;42.126;24.752;2023-05-08T06:06:19;99913.69;;;17.48;46.40
65175;BME280;51761;42.126;24.752;2023-05-08T06:08:44;99902.88;;;17.55;53.99
65175;BME280;51761;42.126;24.752;2023-05-08T06:11:10;99910.84;;;17.78;53.33
65175;BME280;51761;42.126;24.752;2023-05-08T06:13:38;99908.59;;;17.64;48.31
65175;BME280;51761;42.126;24.752;2023-05-08T06:16:04;99911.53;;;17.61;53.25
65175;BME280;51761;42.126;24.752;2023-05-08T06:18:30;99912.28;;;17.83;47.24
65175;BME280;51761;42.126;24.752;2023-05-08T06:20:56;99904.44;;;17.87;45.11
65175;BME280;51761;42.126;24.752;2023-05-08T06:23:22;99906.50;;;17.95;44.96
65175;BME280;51761;42.126;24.752;2023-05-08T06:25:48;99883.94;;;18.13;44.91
65175;BME280;51761;42.126;24.752;2023-05-08T06:28:14;99903.06;;;18.49;44.43
65175;BME280;51761;42.126;24.752;2023-05-08T06:30:39;99880.41;;;18.49;44.73
65175;BME280;51761;42.126;24.752;2023-05-08T06:33:05;99887.81;;;18.64;45.44
65175;BME280;51761;42.126;24.752;2023-05-08T06:35:30;99878.22;;;18.80;46.04
65175;BME280;51761;42.126;24.752;2023-05-08T06:37:56;99903.53;;;18.83;44.76
65175;BME280;51761;42.126;24.752;2023-05-08T06:40:21;99878.22;;;18.71;43.22
65175;BME280;51761;42.126;24.752;2023-05-08T06:42:48;99892.53;;;18.94;44.93
65175;BME280;51761;42.126;24.752;2023-05-08T06:45:13;99872.25;;;19.23;42.14
65175;BME280;51761;42.126;24.752;2023-05-08T06:47:39;99894.13;;;19.72;40.97
65175;BME280;51761;42.126;24.752;2023-05-08T06:50:05;99900.50;;;20.47;40.60
65175;BME280;51761;42.126;24.752;2023-05-08T06:52:31;99892.28;;;21.82;38.17
65175;BME280;51761;42.126;24.752;2023-05-08T06:54:56;99863.81;;;22.91;36.65
65175;BME280;51761;42.126;24.752;2023-05-08T06:57:22;99867.63;;;23.28;35.57
65175;BME280;51761;42.126;24.752;2023-05-08T06:59:51;99868.75;;;23.98;33.40
65175;BME280;51761;42.126;24.752;2023-05-08T07:02:17;99869.13;;;24.58;32.36
65175;BME280;51761;42.126;24.752;2023-05-08T07:04:43;99880.97;;;25.04;32.41
65175;BME280;51761;42.126;24.752;2023-05-08T07:07:08;99865.13;;;24.97;31.01
65175;BME280;51761;42.126;24.752;2023-05-08T07:09:34;99871.22;;;25.60;31.34
65175;BME280;51761;42.126;24.752;2023-05-08T07:11:59;99857.69;;;25.38;31.04
65175;BME280;51761;42.126;24.752;2023-05-08T07:14:25;99863.84;;;26.52;30.05
65175;BME280;51761;42.126;24.752;2023-05-08T07:16:51;99867.13;;;27.29;31.17
65175;BME280;51761;42.126;24.752;2023-05-08T07:19:17;99874.66;;;27.72;27.93
65175;BME280;51761;42.126;24.752;2023-05-08T07:21:42;99866.50;;;28.35;28.06
65175;BME280;51761;42.126;24.752;2023-05-08T07:24:10;99867.69;;;28.69;26.98
65175;BME280;51761;42.126;24.752;2023-05-08T07:26:35;99849.81;;;28.58;26.68
65175;BME280;51761;42.126;24.752;2023-05-08T07:29:01;99856.97;;;28.70;28.14
65175;BME280;51761;42.126;24.752;2023-05-08T07:31:26;99843.16;;;28.44;28.34
65175;BME280;51761;42.126;24.752;2023-05-08T07:33:52;99865.72;;;29.01;26.55
65175;BME280;51761;42.126;24.752;2023-05-08T07:36:17;99846.91;;;29.19;27.14
65175;BME280;51761;42.126;24.752;2023-05-08T07:38:43;99858.41;;;29.19;27.95
65175;BME280;51761;42.126;24.752;2023-05-08T07:41:08;99867.44;;;28.19;27.61
65175;BME280;51761;42.126;24.752;2023-05-08T07:43:34;99869.09;;;27.85;29.95
65175;BME280;51761;42.126;24.752;2023-05-08T07:46:00;99859.69;;;27.85;29.34
65175;BME280;51761;42.126;24.752;2023-05-08T07:48:25;99860.84;;;27.71;28.22
65175;BME280;51761;42.126;24.752;2023-05-08T07:50:51;99854.44;;;28.13;29.08
65175;BME280;51761;42.126;24.752;2023-05-08T07:53:16;99854.34;;;28.24;29.53
65175;BME280;51761;42.126;24.752;2023-05-08T07:55:42;99857.31;;;27.54;29.17
65175;BME280;51761;42.126;24.752;2023-05-08T07:58:08;99853.50;;;28.05;27.33
65175;BME280;51761;42.126;24.752;2023-05-08T08:00:33;99854.31;;;27.36;30.27
65175;BME280;51761;42.126;24.752;2023-05-08T08:02:59;99845.19;;;27.72;30.01
65175;BME280;51761;42.126;24.752;2023-05-08T08:05:24;99831.66;;;28.20;28.98
65175;BME280;51761;42.126;24.752;2023-05-08T08:07:50;99836.53;;;28.01;28.40
65175;BME280;51761;42.126;24.752;2023-05-08T08:10:15;99841.88;;;27.28;29.34
65175;BME280;51761;42.126;24.752;2023-05-08T08:12:41;99840.94;;;27.09;29.86
65175;BME280;51761;42.126;24.752;2023-05-08T08:15:07;99838.50;;;27.24;31.20
65175;BME280;51761;42.126;24.752;2023-05-08T08:17:32;99824.94;;;27.24;31.04
65175;BME280;51761;42.126;24.752;2023-05-08T08:19:58;99837.41;;;26.81;32.93
65175;BME280;51761;42.126;24.752;2023-05-08T08:22:24;99830.94;;;27.21;30.85
65175;BME280;51761;42.126;24.752;2023-05-08T08:24:51;99828.47;;;26.33;31.59
65175;BME280;51761;42.126;24.752;2023-05-08T08:27:16;99830.09;;;25.79;31.40
65175;BME280;51761;42.126;24.752;2023-05-08T08:29:42;99826.75;;;25.92;33.87
65175;BME280;51761;42.126;24.752;2023-05-08T08:32:07;99816.31;;;26.16;31.74
65175;BME280;51761;42.126;24.752;2023-05-08T08:34:34;99798.22;;;26.48;30.49
65175;BME280;51761;42.126;24.752;2023-05-08T08:36:59;99790.78;;;26.18;31.99
65175;BME280;51761;42.126;24.752;2023-05-08T08:39:25;99793.31;;;26.38;30.86
65175;BME280;51761;42.126;24.752;2023-05-08T08:41:50;99806.66;;;26.08;32.50
65175;BME280;51761;42.126;24.752;2023-05-08T08:44:16;99794.19;;;26.11;32.47
65175;BME280;51761;42.126;24.752;2023-05-08T08:46:49;99792.97;;;26.63;31.41
65175;BME280;51761;42.126;24.752;2023-05-08T08:49:41;99811.88;;;26.83;30.58
65175;BME280;51761;42.126;24.752;2023-05-08T08:54:59;99797.94;;;27.03;30.55
65175;BME280;51761;42.126;24.752;2023-05-08T08:57:27;99786.75;;;27.00;30.87
65175;BME280;51761;42.126;24.752;2023-05-08T08:59:57;99794.69;;;27.23;30.16
65175;BME280;51761;42.126;24.752;2023-05-08T09:02:24;99786.22;;;27.36;33.25
65175;BME280;51761;42.126;24.752;2023-05-08T09:04:50;99793.34;;;27.30;31.52
65175;BME280;51761;42.126;24.752;2023-05-08T09:07:16;99785.06;;;27.21;31.42
65175;BME280;51761;42.126;24.752;2023-05-08T09:09:43;99786.59;;;27.57;30.34
65175;BME280;51761;42.126;24.752;2023-05-08T09:12:09;99795.13;;;27.38;30.61
65175;BME280;51761;42.126;24.752;2023-05-08T09:14:34;99781.56;;;27.33;31.25
65175;BME280;51761;42.126;24.752;2023-05-08T09:17:00;99760.19;;;26.94;30.80
65175;BME280;51761;42.126;24.752;2023-05-08T09:19:27;99771.09;;;27.41;32.40
65175;BME280;51761;42.126;24.752;2023-05-08T09:21:53;99741.19;;;27.61;31.01
65175;BME280;51761;42.126;24.752;2023-05-08T09:24:19;99758.44;;;27.55;31.85
65175;BME280;51761;42.126;24.752;2023-05-08T09:26:44;99732.09;;;27.27;31.93
65175;BME280;51761;42.126;24.752;2023-05-08T09:29:15;99749.31;;;27.57;31.17
65175;BME280;51761;42.126;24.752;2023-05-08T09:31:43;99742.88;;;27.74;31.53
65175;BME280;51761;42.126;24.752;2023-05-08T09:36:51;99728.03;;;27.70;33.39
65175;BME280;51761;42.126;24.752;2023-05-08T09:39:21;99732.19;;;27.46;30.73
65175;BME280;51761;42.126;24.752;2023-05-08T09:42:04;99735.78;;;27.52;33.58
65175;BME280;51761;42.126;24.752;2023-05-08T09:44:49;99724.97;;;27.39;31.91
65175;BME280;51761;42.126;24.752;2023-05-08T09:47:25;99706.06;;;27.20;31.43
65175;BME280;51761;42.126;24.752;2023-05-08T09:50:04;99718.13;;;27.13;34.04
65175;BME280;51761;42.126;24.752;2023-05-08T09:52:31;99695.00;;;27.35;34.08
65175;BME280;51761;42.126;24.752;2023-05-08T09:54:57;99716.91;;;27.32;32.13
65175;BME280;51761;42.126;24.752;2023-05-08T09:57:24;99707.97;;;27.12;31.88
65175;BME280;51761;42.126;24.752;2023-05-08T09:59:50;99705.34;;;27.14;32.38
65175;BME280;51761;42.126;24.752;2023-05-08T10:02:15;99691.59;;;26.72;31.96
65175;BME280;51761;42.126;24.752;2023-05-08T10:04:41;99696.16;;;26.86;32.82
65175;BME280;51761;42.126;24.752;2023-05-08T10:07:07;99692.44;;;26.96;33.95
65175;BME280;51761;42.126;24.752;2023-05-08T10:09:32;99692.59;;;27.39;31.66
65175;BME280;51761;42.126;24.752;2023-05-08T10:11:58;99686.75;;;27.50;33.79
65175;BME280;51761;42.126;24.752;2023-05-08T10:14:24;99685.47;;;27.74;33.40
65175;BME280;51761;42.126;24.752;2023-05-08T10:16:51;99684.09;;;27.81;32.88
65175;BME280;51761;42.126;24.752;2023-05-08T10:19:22;99682.09;;;27.94;31.92
65175;BME280;51761;42.126;24.752;2023-05-08T10:21:50;99685.25;;;28.15;31.67
65175;BME280;51761;42.126;24.752;2023-05-08T10:24:24;99678.72;;;27.72;32.06
65175;BME280;51761;42.126;24.752;2023-05-08T10:30:00;99672.72;;;27.17;31.73
65175;BME280;51761;42.126;24.752;2023-05-08T10:32:36;99650.06;;;26.84;33.77
65175;BME280;51761;42.126;24.752;2023-05-08T10:35:04;99645.69;;;27.07;33.99
65175;BME280;51761;42.126;24.752;2023-05-08T10:37:34;99660.69;;;27.48;34.24
65175;BME280;51761;42.126;24.752;2023-05-08T10:40:01;99636.19;;;27.47;34.66
65175;BME280;51761;42.126;24.752;2023-05-08T10:42:27;99654.19;;;27.95;31.12
65175;BME280;51761;42.126;24.752;2023-05-08T10:44:53;99650.56;;;27.70;32.31
65175;BME280;51761;42.126;24.752;2023-05-08T10:48:02;99644.06;;;27.70;34.59
65175;BME280;51761;42.126;24.752;2023-05-08T10:53:21;99640.13;;;27.67;32.49
65175;BME280;51761;42.126;24.752;2023-05-08T10:55:50;99639.97;;;28.02;34.08
65175;BME280;51761;42.126;24.752;2023-05-08T10:58:36;99649.81;;;28.31;32.98
65175;BME280;51761;42.126;24.752;2023-05-08T11:03:46;99644.78;;;27.47;32.87
65175;BME280;51761;42.126;24.752;2023-05-08T11:06:12;99615.63;;;27.66;32.23
65175;BME280;51761;42.126;24.752;2023-05-08T11:08:49;99637.88;;;27.84;33.46
65175;BME280;51761;42.126;24.752;2023-05-08T11:11:31;99619.25;;;27.91;32.18
65175;BME280;51761;42.126;24.752;2023-05-08T11:19:20;99633.25;;;28.18;34.11
65175;BME280;51761;42.126;24.752;2023-05-08T11:24:37;99623.47;;;28.45;32.45
65175;BME280;51761;42.126;24.752;2023-05-08T11:27:03;99625.16;;;28.72;32.57
65175;BME280;51761;42.126;24.752;2023-05-08T11:29:29;99607.53;;;28.63;32.23
65175;BME280;51761;42.126;24.752;2023-05-08T11:31:54;99619.06;;;28.94;32.97
65175;BME280;51761;42.126;24.752;2023-05-08T11:37:12;99612.13;;;28.84;32.29
65175;BME280;51761;42.126;24.752;2023-05-08T11:39:40;99609.09;;;28.95;31.85
65175;BME280;51761;42.126;24.752;2023-05-08T11:47:37;99592.88;;;29.24;31.33
65175;BME280;51761;42.126;24.752;2023-05-08T11:50:03;99602.72;;;29.15;31.59
65175;BME280;51761;42.126;24.752;2023-05-08T11:52:33;99602.97;;;28.86;31.79
65175;BME280;51761;42.126;24.752;2023-05-08T11:55:10;99609.22;;;28.71;31.49
65175;BME280;51761;42.126;24.752;2023-05-08T11:57:36;99596.84;;;28.76;31.77
65175;BME280;51761;42.126;24.752;2023-05-08T12:00:04;99600.41;;;29.14;33.05
65175;BME280;51761;42.126;24.752;2023-05-08T12:02:39;99585.69;;;29.17;32.03
65175;BME280;51761;42.126;24.752;2023-05-08T12:05:06;99592.13;;;29.36;31.11
65175;BME280;51761;42.126;24.752;2023-05-08T12:07:32;99569.09;;;29.36;30.94
65175;BME280;51761;42.126;24.752;2023-05-08T12:10:00;99574.75;;;29.80;30.64
65175;BME280;51761;42.126;24.752;2023-05-08T12:12:37;99564.00;;;30.07;31.88
65175;BME280;51761;42.126;24.752;2023-05-08T12:15:10;99565.25;;;29.72;30.51
65175;BME280;51761;42.126;24.752;2023-05-08T12:17:36;99565.00;;;29.83;29.77
65175;BME280;51761;42.126;24.752;2023-05-08T12:22:35;99557.50;;;28.84;32.66
65175;BME280;51761;42.126;24.752;2023-05-08T12:25:03;99559.44;;;28.63;32.69
65175;BME280;51761;42.126;24.752;2023-05-08T12:27:29;99533.81;;;28.34;32.52
65175;BME280;51761;42.126;24.752;2023-05-08T12:29:56;99544.69;;;27.85;34.28
65175;BME280;51761;42.126;24.752;2023-05-08T12:32:22;99551.41;;;27.69;36.25
65175;BME280;51761;42.126;24.752;2023-05-08T12:34:48;99548.00;;;27.53;35.43
65175;BME280;51761;42.126;24.752;2023-05-08T12:37:26;99544.31;;;27.10;35.53
65175;BME280;51761;42.126;24.752;2023-05-08T12:39:51;99543.22;;;27.13;36.34
65175;BME280;51761;42.126;24.752;2023-05-08T12:42:17;99541.53;;;27.47;37.15
65175;BME280;51761;42.126;24.752;2023-05-08T12:44:49;99541.91;;;27.38;35.77
65175;BME280;51761;42.126;24.752;2023-05-08T12:47:17;99544.06;;;27.92;35.71
65175;BME280;51761;42.126;24.752;2023-05-08T12:49:43;99539.75;;;28.54;36.93
65175;BME280;51761;42.126;24.752;2023-05-08T12:52:12;99526.94;;;29.13;36.53
65175;BME280;51761;42.126;24.752;2023-05-08T12:54:39;99532.56;;;29.44;34.19
65175;BME280;51761;42.126;24.752;2023-05-08T12:57:09;99522.94;;;29.03;32.84
65175;BME280;51761;42.126;24.752;2023-05-08T12:59:35;99529.69;;;29.18;32.34
65175;BME280;51761;42.126;24.752;2023-05-08T13:02:01;99530.63;;;29.52;33.33
65175;BME280;51761;42.126;24.752;2023-05-08T13:04:27;99526.63;;;29.29;32.55
65175;BME280;51761;42.126;24.752;2023-05-08T13:06:54;99538.53;;;29.72;33.35
65175;BME280;51761;42.126;24.752;2023-05-08T13:09:20;99547.50;;;29.30;31.58
65175;BME280;51761;42.126;24.752;2023-05-08T13:11:47;99539.81;;;28.80;32.80
65175;BME280;51761;42.126;24.752;2023-05-08T13:14:13;99542.88;;;28.38;32.73
65175;BME280;51761;42.126;24.752;2023-05-08T13:16:43;99541.75;;;27.91;35.18
65175;BME280;51761;42.126;24.752;2023-05-08T13:19:09;99530.94;;;27.78;36.06
65175;BME280;51761;42.126;24.752;2023-05-08T13:21:34;99531.56;;;27.90;35.86
65175;BME280;51761;42.126;24.752;2023-05-08T13:24:00;99526.56;;;28.27;34.22
65175;BME280;51761;42.126;24.752;2023-05-08T13:26:25;99512.47;;;27.56;34.73
65175;BME280;51761;42.126;24.752;2023-05-08T13:28:51;99528.22;;;27.25;37.11
65175;BME280;51761;42.126;24.752;2023-05-08T13:31:17;99524.06;;;27.45;37.17
65175;BME280;51761;42.126;24.752;2023-05-08T13:33:43;99518.13;;;27.19;35.80
65175;BME280;51761;42.126;24.752;2023-05-08T13:36:08;99516.22;;;27.03;35.47
65175;BME280;51761;42.126;24.752;2023-05-08T13:38:34;99489.78;;;27.15;36.90
65175;BME280;51761;42.126;24.752;2023-05-08T13:40:59;99498.97;;;27.51;35.73
65175;BME280;51761;42.126;24.752;2023-05-08T13:43:25;99507.75;;;27.76;35.86
65175;BME280;51761;42.126;24.752;2023-05-08T13:45:50;99507.13;;;28.02;34.66
65175;BME280;51761;42.126;24.752;2023-05-08T13:48:16;99504.69;;;28.24;33.74
65175;BME280;51761;42.126;24.752;2023-05-08T13:50:41;99487.66;;;28.13;34.24